• Join FlightAware (Why Join?)
  • Login
  • US Flag 
Gobble Gobble! 
09:41AM EST


 

Airport Tracker/Info


-or-


 

Live Flight TrackerFlight Track Log ✈ CES5160 ✈ 26-Aug-2014 ✈ ZSLG / LYG - ZBAA / PEK

Flight Track Log - Related Links

Times and Time Zones

All times are in EDT time to prevent confusion due to time zone crossing. See the CES5160 flight status page for this flight to view local times or setup timezone preferences in your user account.

Time Position Orientation Groundspeed Altitude Reporting Facility
EDT Latitude Longitude Course Direction KTS MPH feet Rate Location/Type
11:06AM 35.7796 118.4010 342° North  Level Estimated
11:07AM 35.8658 118.3667 342° North  Level Estimated
11:08AM 35.9520 118.3323 342° North  Level Estimated
11:09AM 36.0382 118.2978 342° North  Level Estimated
11:10AM 36.1244 118.2633 342° North  Level Estimated
11:11AM 36.2106 118.2287 342° North  Level Estimated
11:12AM 36.2967 118.1940 342° North  Level Estimated
11:13AM 36.3829 118.1592 342° North  Level Estimated
11:14AM 36.4690 118.1244 342° North  Level Estimated
11:15AM 36.5551 118.0895 342° North  Level Estimated
11:16AM 36.6413 118.0545 342° North  Level Estimated
11:17AM 36.7274 118.0194 342° North  Level Estimated
11:18AM 36.8135 117.9843 342° North  Level Estimated
11:19AM 36.8996 117.9491 342° North  Level Estimated
11:20AM 36.9856 117.9137 342° North  Level Estimated
11:21AM 37.0717 117.8784 342° North  Level Estimated
11:22AM 37.1578 117.8429 342° North  Level Estimated
11:23AM 37.2438 117.8073 342° North  Level Estimated
11:24AM 37.3298 117.7717 342° North  Level Estimated
11:25AM 37.4159 117.7360 342° North  Level Estimated
11:26AM 37.5019 117.7002 342° North  Level Estimated
11:27AM 37.5879 117.6643 342° North  Level Estimated
11:28AM 37.6739 117.6284 342° North  Level Estimated
11:29AM 37.7599 117.5923 342° North  Level Estimated
11:30AM 37.8458 117.5562 342° North  Level Estimated
11:31AM 37.9318 117.5200 342° North  Level Estimated
11:32AM 38.0177 117.4837 342° North  Level Estimated
11:33AM 38.1037 117.4473 342° North  Level Estimated
11:34AM 38.1896 117.4109 342° North  Level Estimated
11:35AM 38.2755 117.3743 342° North  Level Estimated
11:36AM 38.3614 117.3376 342° North  Level Estimated
11:37AM 38.4473 117.3009 341° North  Level Estimated
11:38AM 38.5332 117.2641 341° North  Level Estimated
11:39AM 38.6191 117.2272 341° North  Level Estimated
11:40AM 38.7049 117.1902 341° North  Level Estimated
11:41AM 38.7908 117.1531 341° North  Level Estimated
11:42AM 38.8766 117.1160 341° North  Level Estimated
11:43AM 38.9624 117.0787 341° North  Level Estimated
11:44AM 39.0482 117.0414 341° North  Level Estimated
11:45AM 39.1340 117.0039 341° North  Level Estimated
11:46AM 39.2198 116.9664 341° North  Level Estimated
11:47AM 39.3056 116.9288 341° North  Level Estimated
11:48AM 39.3914 116.8911 341° North  Level Estimated
11:49AM 39.4771 116.8532 341° North  Level Estimated
11:50AM 39.5629 116.8153 341° North  Level Estimated
11:51AM 39.6486 116.7773 341° North  Level Estimated
11:52AM 39.7343 116.7393 341° North  Level Estimated
11:53AM 39.8200 116.7011 341° North  Level Estimated
11:54AM 39.9057 116.6628 341° North  Level Estimated
11:55AM 39.9914 116.6244 341° North  Level Estimated
11:56AM 40.0770 116.5859 341° North  Level Estimated
11:57AM 40.0801 116.5846 341° North  Level Estimated
11:58AM 40.0801 116.5846 North  Level Estimated
11:59AM 40.0801 116.5846 North  Level Estimated
12:00PM 40.0801 116.5846 North  Level Estimated
12:01PM 40.0801 116.5846 North  Level Estimated
12:02PM 40.0801 116.5846 North  Level Estimated
12:03PM 40.0801 116.5846 North  Level Estimated
12:04PM 40.0801 116.5846 North  Level Estimated
12:05PM 40.0801 116.5846 North  Level Estimated
12:06PM 40.0801 116.5846 North  Level Estimated
12:07PM 40.0801 116.5846 North  Level Estimated
12:08PM 40.0801 116.5846 North  Level Estimated
12:09PM 40.0801 116.5846 North  Level Estimated
12:10PM 40.0801 116.5846 North  Level Estimated